To NAV CANADA Home Page Login to a new session Search on AWWS site Disclaimer Vers la page française équivalente Tips FAQ What's new on the site To the Forecasts and Observations / NOTAM section To "File a Flight Plan" website Publications and other links Update of the User's profile FIC Telephone Numbers My Weather Data Folder Route Weather Data Regional Weather Data Local Weather Data To the Forecasts and Observations / NOTAM section
Request Generated 10/19/2018 at 15:28:12 UTC . Weather information available at that time is displayed.

METAR/TAF

KITCHENER/WATERLOO/ON    (show WxCam)

METAR CYKF 191500Z AUTO 23013G19KT 9SM BKN240 10/02 A3005 RMK SLP184=
METAR CYKF 191400Z AUTO 22010G16KT 9SM SCT240 08/02 A3008 RMK SLP194=
METAR CYKF 191300Z AUTO 22009KT 9SM FEW240 05/01 A3010 RMK SLP205=

TAF CYKF 191338Z 1914/2002 23012G22KT P6SM SCT230
FM191800 23015G30KT P6SM BKN200
FM192200 23015G28KT P6SM BKN100 OVC150
FM200100 23015G25KT P6SM -RA OVC040
RMK FCST BASED ON AUTO OBS. NXT FCST BY 192000Z=
Your time UTC time
Weather data provided by Environment Canada and NAV CANADA